sensor_id;sensor_type;location;lat;lon;timestamp;P1;durP1;ratioP1;P2;durP2;ratioP2
19971;SDS011;10147;16.402;102.848;2023-02-28T00:01:50;37.25;;;27.15;;
19971;SDS011;10147;16.402;102.848;2023-02-28T00:04:21;38.30;;;26.30;;
19971;SDS011;10147;16.402;102.848;2023-02-28T00:06:51;39.63;;;25.42;;
19971;SDS011;10147;16.402;102.848;2023-02-28T00:09:22;38.25;;;24.88;;
19971;SDS011;10147;16.402;102.848;2023-02-28T00:11:52;36.30;;;24.98;;
19971;SDS011;10147;16.402;102.848;2023-02-28T00:14:23;39.47;;;27.80;;
19971;SDS011;10147;16.402;102.848;2023-02-28T00:16:53;37.13;;;26.90;;
19971;SDS011;10147;16.402;102.848;2023-02-28T00:19:24;36.92;;;25.52;;
19971;SDS011;10147;16.402;102.848;2023-02-28T00:21:54;33.50;;;24.85;;
19971;SDS011;10147;16.402;102.848;2023-02-28T00:24:25;29.95;;;24.05;;
19971;SDS011;10147;16.402;102.848;2023-02-28T00:26:55;33.67;;;24.58;;
19971;SDS011;10147;16.402;102.848;2023-02-28T00:29:26;31.02;;;23.55;;
19971;SDS011;10147;16.402;102.848;2023-02-28T00:31:56;32.75;;;24.33;;
19971;SDS011;10147;16.402;102.848;2023-02-28T00:34:27;32.80;;;23.80;;
19971;SDS011;10147;16.402;102.848;2023-02-28T00:36:58;32.83;;;23.08;;
19971;SDS011;10147;16.402;102.848;2023-02-28T00:39:28;32.55;;;23.58;;
19971;SDS011;10147;16.402;102.848;2023-02-28T00:41:59;33.92;;;22.98;;
19971;SDS011;10147;16.402;102.848;2023-02-28T00:44:30;33.42;;;23.02;;
19971;SDS011;10147;16.402;102.848;2023-02-28T00:47:00;33.97;;;23.60;;
19971;SDS011;10147;16.402;102.848;2023-02-28T00:49:31;36.70;;;24.23;;
19971;SDS011;10147;16.402;102.848;2023-02-28T00:52:01;32.67;;;23.83;;
19971;SDS011;10147;16.402;102.848;2023-02-28T00:54:32;32.13;;;24.40;;
19971;SDS011;10147;16.402;102.848;2023-02-28T00:57:02;32.80;;;22.42;;
19971;SDS011;10147;16.402;102.848;2023-02-28T00:59:32;30.88;;;23.63;;
19971;SDS011;10147;16.402;102.848;2023-02-28T01:02:03;35.53;;;24.73;;
19971;SDS011;10147;16.402;102.848;2023-02-28T01:04:36;32.38;;;22.65;;
19971;SDS011;10147;16.402;102.848;2023-02-28T01:07:07;33.00;;;23.20;;
19971;SDS011;10147;16.402;102.848;2023-02-28T01:09:38;34.47;;;22.20;;
19971;SDS011;10147;16.402;102.848;2023-02-28T01:12:09;36.63;;;32.45;;
19971;SDS011;10147;16.402;102.848;2023-02-28T01:14:40;39.35;;;34.67;;
19971;SDS011;10147;16.402;102.848;2023-02-28T01:17:11;33.92;;;23.48;;
19971;SDS011;10147;16.402;102.848;2023-02-28T01:19:42;32.35;;;22.98;;
19971;SDS011;10147;16.402;102.848;2023-02-28T01:22:12;32.13;;;22.35;;
19971;SDS011;10147;16.402;102.848;2023-02-28T01:24:43;33.47;;;22.27;;
19971;SDS011;10147;16.402;102.848;2023-02-28T01:27:14;32.30;;;22.55;;
19971;SDS011;10147;16.402;102.848;2023-02-28T01:29:45;32.70;;;23.30;;
19971;SDS011;10147;16.402;102.848;2023-02-28T01:32:15;32.78;;;22.35;;
19971;SDS011;10147;16.402;102.848;2023-02-28T01:34:45;29.17;;;22.40;;
19971;SDS011;10147;16.402;102.848;2023-02-28T01:37:16;29.48;;;22.88;;
19971;SDS011;10147;16.402;102.848;2023-02-28T01:39:46;30.83;;;23.85;;
19971;SDS011;10147;16.402;102.848;2023-02-28T01:42:20;34.92;;;26.88;;
19971;SDS011;10147;16.402;102.848;2023-02-28T01:47:55;26.98;;;20.05;;
19971;SDS011;10147;16.402;102.848;2023-02-28T01:50:31;26.08;;;18.25;;
19971;SDS011;10147;16.402;102.848;2023-02-28T01:53:07;25.85;;;19.08;;
19971;SDS011;10147;16.402;102.848;2023-02-28T01:55:41;19.48;;;16.33;;
19971;SDS011;10147;16.402;102.848;2023-02-28T01:58:15;22.50;;;18.80;;
19971;SDS011;10147;16.402;102.848;2023-02-28T02:00:46;30.50;;;19.30;;
19971;SDS011;10147;16.402;102.848;2023-02-28T02:03:17;22.10;;;16.98;;
19971;SDS011;10147;16.402;102.848;2023-02-28T02:05:50;22.30;;;17.08;;
19971;SDS011;10147;16.402;102.848;2023-02-28T02:08:21;24.73;;;17.20;;
19971;SDS011;10147;16.402;102.848;2023-02-28T02:10:58;23.13;;;18.73;;
19971;SDS011;10147;16.402;102.848;2023-02-28T02:13:51;22.00;;;16.50;;
19971;SDS011;10147;16.402;102.848;2023-02-28T02:29:23;19.30;;;15.70;;
19971;SDS011;10147;16.402;102.848;2023-02-28T02:32:34;19.73;;;15.52;;
19971;SDS011;10147;16.402;102.848;2023-02-28T02:35:31;18.02;;;15.02;;
19971;SDS011;10147;16.402;102.848;2023-02-28T02:44:21;20.45;;;13.00;;
19971;SDS011;10147;16.402;102.848;2023-02-28T02:47:20;20.08;;;14.05;;
19971;SDS011;10147;16.402;102.848;2023-02-28T02:49:56;20.27;;;15.85;;
19971;SDS011;10147;16.402;102.848;2023-02-28T02:52:36;21.65;;;15.10;;
19971;SDS011;10147;16.402;102.848;2023-02-28T02:55:13;20.85;;;15.10;;
19971;SDS011;10147;16.402;102.848;2023-02-28T02:57:47;23.25;;;15.30;;
19971;SDS011;10147;16.402;102.848;2023-02-28T03:00:39;23.45;;;17.00;;
19971;SDS011;10147;16.402;102.848;2023-02-28T03:03:16;20.10;;;15.82;;
19971;SDS011;10147;16.402;102.848;2023-02-28T03:05:58;24.67;;;17.15;;
19971;SDS011;10147;16.402;102.848;2023-02-28T03:08:34;23.63;;;18.88;;
19971;SDS011;10147;16.402;102.848;2023-02-28T03:11:13;32.17;;;19.25;;
19971;SDS011;10147;16.402;102.848;2023-02-28T03:23:15;21.05;;;15.73;;
19971;SDS011;10147;16.402;102.848;2023-02-28T03:25:59;26.15;;;17.35;;
19971;SDS011;10147;16.402;102.848;2023-02-28T03:28:43;24.08;;;16.83;;
19971;SDS011;10147;16.402;102.848;2023-02-28T03:31:44;22.02;;;15.07;;
19971;SDS011;10147;16.402;102.848;2023-02-28T03:34:24;20.02;;;15.40;;
19971;SDS011;10147;16.402;102.848;2023-02-28T03:37:04;22.10;;;18.25;;
19971;SDS011;10147;16.402;102.848;2023-02-28T03:42:31;21.52;;;16.50;;
19971;SDS011;10147;16.402;102.848;2023-02-28T03:45:22;21.27;;;16.63;;
19971;SDS011;10147;16.402;102.848;2023-02-28T03:48:12;20.80;;;17.20;;
19971;SDS011;10147;16.402;102.848;2023-02-28T03:51:03;19.88;;;16.85;;
19971;SDS011;10147;16.402;102.848;2023-02-28T03:53:37;22.77;;;17.67;;
19971;SDS011;10147;16.402;102.848;2023-02-28T03:59:27;22.20;;;16.98;;
19971;SDS011;10147;16.402;102.848;2023-02-28T04:02:02;21.10;;;17.58;;
19971;SDS011;10147;16.402;102.848;2023-02-28T04:04:33;20.83;;;17.45;;
19971;SDS011;10147;16.402;102.848;2023-02-28T04:07:08;22.33;;;16.38;;
19971;SDS011;10147;16.402;102.848;2023-02-28T04:09:40;21.42;;;14.95;;
19971;SDS011;10147;16.402;102.848;2023-02-28T04:12:10;20.90;;;16.40;;
19971;SDS011;10147;16.402;102.848;2023-02-28T04:14:40;24.90;;;15.95;;
19971;SDS011;10147;16.402;102.848;2023-02-28T04:17:11;23.02;;;15.68;;
19971;SDS011;10147;16.402;102.848;2023-02-28T04:19:41;22.30;;;15.23;;
19971;SDS011;10147;16.402;102.848;2023-02-28T04:22:12;18.83;;;14.88;;
19971;SDS011;10147;16.402;102.848;2023-02-28T04:24:43;18.42;;;14.38;;
19971;SDS011;10147;16.402;102.848;2023-02-28T04:27:14;18.42;;;16.02;;
19971;SDS011;10147;16.402;102.848;2023-02-28T04:29:44;16.75;;;14.55;;
19971;SDS011;10147;16.402;102.848;2023-02-28T04:32:15;18.45;;;15.10;;
19971;SDS011;10147;16.402;102.848;2023-02-28T04:34:45;16.35;;;14.50;;
19971;SDS011;10147;16.402;102.848;2023-02-28T04:37:15;18.35;;;14.68;;
19971;SDS011;10147;16.402;102.848;2023-02-28T04:39:46;18.00;;;14.05;;
19971;SDS011;10147;16.402;102.848;2023-02-28T04:42:16;20.13;;;14.63;;
19971;SDS011;10147;16.402;102.848;2023-02-28T04:44:46;18.25;;;14.40;;
19971;SDS011;10147;16.402;102.848;2023-02-28T04:47:16;18.30;;;14.95;;
19971;SDS011;10147;16.402;102.848;2023-02-28T04:49:46;21.17;;;14.27;;
19971;SDS011;10147;16.402;102.848;2023-02-28T04:52:16;16.88;;;14.63;;
19971;SDS011;10147;16.402;102.848;2023-02-28T04:54:47;19.10;;;14.60;;
19971;SDS011;10147;16.402;102.848;2023-02-28T04:57:18;18.52;;;14.05;;
19971;SDS011;10147;16.402;102.848;2023-02-28T04:59:48;17.90;;;14.30;;
19971;SDS011;10147;16.402;102.848;2023-02-28T05:02:18;32.20;;;29.35;;
19971;SDS011;10147;16.402;102.848;2023-02-28T05:04:50;15.93;;;13.50;;
19971;SDS011;10147;16.402;102.848;2023-02-28T05:07:20;19.10;;;14.55;;
19971;SDS011;10147;16.402;102.848;2023-02-28T05:09:51;27.88;;;25.55;;
19971;SDS011;10147;16.402;102.848;2023-02-28T05:12:21;28.65;;;26.15;;
19971;SDS011;10147;16.402;102.848;2023-02-28T05:14:52;15.32;;;13.50;;
19971;SDS011;10147;16.402;102.848;2023-02-28T05:17:22;16.65;;;13.65;;
19971;SDS011;10147;16.402;102.848;2023-02-28T05:19:53;16.50;;;14.70;;
19971;SDS011;10147;16.402;102.848;2023-02-28T05:22:40;16.33;;;13.68;;
19971;SDS011;10147;16.402;102.848;2023-02-28T05:25:12;16.63;;;14.07;;
19971;SDS011;10147;16.402;102.848;2023-02-28T05:27:45;17.30;;;13.30;;
19971;SDS011;10147;16.402;102.848;2023-02-28T05:30:16;17.63;;;14.23;;
19971;SDS011;10147;16.402;102.848;2023-02-28T05:32:49;16.35;;;14.13;;
19971;SDS011;10147;16.402;102.848;2023-02-28T05:35:20;19.05;;;13.82;;
19971;SDS011;10147;16.402;102.848;2023-02-28T05:37:51;20.67;;;13.82;;
19971;SDS011;10147;16.402;102.848;2023-02-28T05:40:22;17.40;;;14.18;;
19971;SDS011;10147;16.402;102.848;2023-02-28T05:42:55;15.43;;;13.45;;
19971;SDS011;10147;16.402;102.848;2023-02-28T05:45:26;19.02;;;14.13;;
19971;SDS011;10147;16.402;102.848;2023-02-28T05:47:57;21.52;;;13.60;;
19971;SDS011;10147;16.402;102.848;2023-02-28T05:50:27;16.88;;;13.93;;
19971;SDS011;10147;16.402;102.848;2023-02-28T05:52:58;19.25;;;13.80;;
19971;SDS011;10147;16.402;102.848;2023-02-28T05:55:28;17.00;;;13.90;;
19971;SDS011;10147;16.402;102.848;2023-02-28T05:57:58;18.77;;;12.60;;
19971;SDS011;10147;16.402;102.848;2023-02-28T06:00:28;15.35;;;13.73;;
19971;SDS011;10147;16.402;102.848;2023-02-28T06:02:59;17.58;;;13.32;;
19971;SDS011;10147;16.402;102.848;2023-02-28T06:05:31;18.90;;;13.77;;
19971;SDS011;10147;16.402;102.848;2023-02-28T06:08:01;16.63;;;12.18;;
19971;SDS011;10147;16.402;102.848;2023-02-28T06:10:32;17.20;;;12.45;;
19971;SDS011;10147;16.402;102.848;2023-02-28T06:13:05;16.42;;;12.65;;
19971;SDS011;10147;16.402;102.848;2023-02-28T06:15:36;17.67;;;14.00;;
19971;SDS011;10147;16.402;102.848;2023-02-28T06:18:06;15.88;;;13.50;;
19971;SDS011;10147;16.402;102.848;2023-02-28T06:20:37;16.67;;;14.18;;
19971;SDS011;10147;16.402;102.848;2023-02-28T06:23:07;15.55;;;13.63;;
19971;SDS011;10147;16.402;102.848;2023-02-28T06:25:38;19.27;;;13.73;;
19971;SDS011;10147;16.402;102.848;2023-02-28T06:28:09;22.20;;;13.77;;
19971;SDS011;10147;16.402;102.848;2023-02-28T06:30:39;16.00;;;12.80;;
19971;SDS011;10147;16.402;102.848;2023-02-28T06:33:12;17.50;;;12.82;;
19971;SDS011;10147;16.402;102.848;2023-02-28T06:35:44;17.83;;;13.00;;
19971;SDS011;10147;16.402;102.848;2023-02-28T06:38:17;17.38;;;12.95;;
19971;SDS011;10147;16.402;102.848;2023-02-28T06:40:54;17.60;;;14.25;;
19971;SDS011;10147;16.402;102.848;2023-02-28T06:43:28;18.23;;;12.63;;
19971;SDS011;10147;16.402;102.848;2023-02-28T06:46:01;14.80;;;12.95;;
19971;SDS011;10147;16.402;102.848;2023-02-28T06:48:33;16.63;;;12.45;;
19971;SDS011;10147;16.402;102.848;2023-02-28T06:51:05;18.00;;;12.35;;
19971;SDS011;10147;16.402;102.848;2023-02-28T06:53:44;15.35;;;12.45;;
19971;SDS011;10147;16.402;102.848;2023-02-28T06:56:15;16.88;;;12.15;;
19971;SDS011;10147;16.402;102.848;2023-02-28T06:58:47;15.00;;;11.93;;
19971;SDS011;10147;16.402;102.848;2023-02-28T07:01:19;15.35;;;12.07;;
19971;SDS011;10147;16.402;102.848;2023-02-28T07:03:52;13.88;;;12.38;;
19971;SDS011;10147;16.402;102.848;2023-02-28T07:06:23;15.35;;;12.75;;
19971;SDS011;10147;16.402;102.848;2023-02-28T07:08:54;14.10;;;12.23;;
19971;SDS011;10147;16.402;102.848;2023-02-28T07:11:25;14.85;;;12.25;;
19971;SDS011;10147;16.402;102.848;2023-02-28T07:13:57;13.23;;;11.82;;
19971;SDS011;10147;16.402;102.848;2023-02-28T07:16:27;16.23;;;12.65;;
19971;SDS011;10147;16.402;102.848;2023-02-28T07:18:58;14.55;;;12.90;;
19971;SDS011;10147;16.402;102.848;2023-02-28T07:21:28;16.30;;;12.35;;
19971;SDS011;10147;16.402;102.848;2023-02-28T07:23:59;13.95;;;12.55;;
19971;SDS011;10147;16.402;102.848;2023-02-28T07:26:29;15.15;;;12.95;;
19971;SDS011;10147;16.402;102.848;2023-02-28T07:28:59;15.70;;;12.55;;
19971;SDS011;10147;16.402;102.848;2023-02-28T07:31:31;15.63;;;13.30;;
19971;SDS011;10147;16.402;102.848;2023-02-28T07:34:02;14.65;;;13.15;;
19971;SDS011;10147;16.402;102.848;2023-02-28T07:36:32;16.13;;;12.20;;
19971;SDS011;10147;16.402;102.848;2023-02-28T07:39:03;16.40;;;14.18;;
19971;SDS011;10147;16.402;102.848;2023-02-28T07:41:33;14.93;;;12.40;;
19971;SDS011;10147;16.402;102.848;2023-02-28T07:44:08;15.07;;;13.52;;
19971;SDS011;10147;16.402;102.848;2023-02-28T07:46:39;17.75;;;13.75;;
19971;SDS011;10147;16.402;102.848;2023-02-28T07:49:10;18.67;;;13.68;;
19971;SDS011;10147;16.402;102.848;2023-02-28T07:51:40;17.45;;;13.10;;
19971;SDS011;10147;16.402;102.848;2023-02-28T07:54:10;19.90;;;12.40;;
19971;SDS011;10147;16.402;102.848;2023-02-28T07:56:40;25.27;;;13.95;;
19971;SDS011;10147;16.402;102.848;2023-02-28T07:59:11;22.77;;;13.10;;
19971;SDS011;10147;16.402;102.848;2023-02-28T08:01:41;13.48;;;12.07;;
19971;SDS011;10147;16.402;102.848;2023-02-28T08:04:13;19.80;;;12.95;;
19971;SDS011;10147;16.402;102.848;2023-02-28T08:06:43;15.48;;;11.15;;
19971;SDS011;10147;16.402;102.848;2023-02-28T08:09:14;14.75;;;10.75;;
19971;SDS011;10147;16.402;102.848;2023-02-28T08:11:44;19.40;;;13.57;;
19971;SDS011;10147;16.402;102.848;2023-02-28T08:14:14;15.63;;;12.48;;
19971;SDS011;10147;16.402;102.848;2023-02-28T08:16:44;16.58;;;12.88;;
19971;SDS011;10147;16.402;102.848;2023-02-28T08:19:14;17.08;;;13.30;;
19971;SDS011;10147;16.402;102.848;2023-02-28T08:21:44;16.10;;;13.35;;
19971;SDS011;10147;16.402;102.848;2023-02-28T08:24:14;17.73;;;13.50;;
19971;SDS011;10147;16.402;102.848;2023-02-28T08:26:44;14.80;;;13.20;;
19971;SDS011;10147;16.402;102.848;2023-02-28T08:29:15;15.90;;;14.25;;
19971;SDS011;10147;16.402;102.848;2023-02-28T08:31:45;20.80;;;14.25;;
19971;SDS011;10147;16.402;102.848;2023-02-28T08:34:15;15.95;;;13.00;;
19971;SDS011;10147;16.402;102.848;2023-02-28T08:36:46;17.80;;;13.57;;
19971;SDS011;10147;16.402;102.848;2023-02-28T08:39:16;16.48;;;13.85;;
19971;SDS011;10147;16.402;102.848;2023-02-28T08:41:48;16.33;;;12.82;;
19971;SDS011;10147;16.402;102.848;2023-02-28T08:44:32;18.48;;;13.43;;
19971;SDS011;10147;16.402;102.848;2023-02-28T08:47:02;19.75;;;14.05;;
19971;SDS011;10147;16.402;102.848;2023-02-28T08:49:33;18.55;;;14.82;;
19971;SDS011;10147;16.402;102.848;2023-02-28T08:52:04;15.00;;;13.38;;
19971;SDS011;10147;16.402;102.848;2023-02-28T08:54:35;15.35;;;13.75;;
19971;SDS011;10147;16.402;102.848;2023-02-28T08:57:05;15.85;;;14.07;;
19971;SDS011;10147;16.402;102.848;2023-02-28T08:59:36;15.82;;;13.15;;
19971;SDS011;10147;16.402;102.848;2023-02-28T09:02:08;17.75;;;13.30;;
19971;SDS011;10147;16.402;102.848;2023-02-28T09:04:41;18.67;;;14.45;;
19971;SDS011;10147;16.402;102.848;2023-02-28T09:07:14;19.65;;;14.60;;
19971;SDS011;10147;16.402;102.848;2023-02-28T09:09:44;16.80;;;14.95;;
19971;SDS011;10147;16.402;102.848;2023-02-28T09:12:24;16.83;;;14.73;;
19971;SDS011;10147;16.402;102.848;2023-02-28T09:14:56;15.43;;;13.80;;
19971;SDS011;10147;16.402;102.848;2023-02-28T09:17:26;17.02;;;14.68;;
19971;SDS011;10147;16.402;102.848;2023-02-28T09:19:57;19.58;;;15.55;;
19971;SDS011;10147;16.402;102.848;2023-02-28T09:22:27;17.02;;;15.27;;
19971;SDS011;10147;16.402;102.848;2023-02-28T09:24:58;17.48;;;15.65;;
19971;SDS011;10147;16.402;102.848;2023-02-28T09:27:28;17.95;;;15.73;;
19971;SDS011;10147;16.402;102.848;2023-02-28T09:29:58;18.65;;;14.88;;
19971;SDS011;10147;16.402;102.848;2023-02-28T09:32:29;20.50;;;15.93;;
19971;SDS011;10147;16.402;102.848;2023-02-28T09:34:59;17.85;;;15.13;;
19971;SDS011;10147;16.402;102.848;2023-02-28T09:37:29;18.35;;;16.35;;
19971;SDS011;10147;16.402;102.848;2023-02-28T09:40:00;19.75;;;15.88;;
19971;SDS011;10147;16.402;102.848;2023-02-28T09:42:31;20.35;;;15.65;;
19971;SDS011;10147;16.402;102.848;2023-02-28T09:45:05;17.67;;;15.55;;
19971;SDS011;10147;16.402;102.848;2023-02-28T09:47:45;22.15;;;17.70;;
19971;SDS011;10147;16.402;102.848;2023-02-28T09:50:21;19.00;;;15.60;;
19971;SDS011;10147;16.402;102.848;2023-02-28T09:53:02;21.58;;;16.58;;
19971;SDS011;10147;16.402;102.848;2023-02-28T09:55:44;18.45;;;16.60;;
19971;SDS011;10147;16.402;102.848;2023-02-28T09:58:40;21.63;;;16.60;;
19971;SDS011;10147;16.402;102.848;2023-02-28T10:13:38;17.77;;;15.88;;
19971;SDS011;10147;16.402;102.848;2023-02-28T10:16:34;21.92;;;17.25;;
19971;SDS011;10147;16.402;102.848;2023-02-28T10:19:14;23.92;;;21.58;;
19971;SDS011;10147;16.402;102.848;2023-02-28T10:22:20;24.83;;;22.48;;
19971;SDS011;10147;16.402;102.848;2023-02-28T10:24:56;23.77;;;21.45;;
19971;SDS011;10147;16.402;102.848;2023-02-28T10:27:33;24.95;;;22.45;;
19971;SDS011;10147;16.402;102.848;2023-02-28T10:30:05;22.45;;;20.15;;
19971;SDS011;10147;16.402;102.848;2023-02-28T10:32:38;22.48;;;19.88;;
19971;SDS011;10147;16.402;102.848;2023-02-28T10:35:14;23.45;;;19.13;;
19971;SDS011;10147;16.402;102.848;2023-02-28T10:37:49;24.90;;;18.92;;
19971;SDS011;10147;16.402;102.848;2023-02-28T10:40:27;20.38;;;17.65;;
19971;SDS011;10147;16.402;102.848;2023-02-28T10:43:11;22.75;;;19.25;;
19971;SDS011;10147;16.402;102.848;2023-02-28T10:45:53;20.90;;;18.42;;
19971;SDS011;10147;16.402;102.848;2023-02-28T10:48:30;29.45;;;17.88;;
19971;SDS011;10147;16.402;102.848;2023-02-28T10:51:07;22.60;;;19.20;;
19971;SDS011;10147;16.402;102.848;2023-02-28T10:56:29;21.33;;;16.38;;
19971;SDS011;10147;16.402;102.848;2023-02-28T11:01:59;22.98;;;16.23;;
19971;SDS011;10147;16.402;102.848;2023-02-28T11:04:34;22.33;;;17.77;;
19971;SDS011;10147;16.402;102.848;2023-02-28T11:07:22;23.80;;;17.55;;
19971;SDS011;10147;16.402;102.848;2023-02-28T11:10:16;21.45;;;17.27;;
19971;SDS011;10147;16.402;102.848;2023-02-28T11:12:49;22.27;;;18.13;;
19971;SDS011;10147;16.402;102.848;2023-02-28T11:15:28;24.77;;;17.80;;
19971;SDS011;10147;16.402;102.848;2023-02-28T11:18:20;24.77;;;17.73;;
19971;SDS011;10147;16.402;102.848;2023-02-28T11:21:15;26.98;;;18.00;;
19971;SDS011;10147;16.402;102.848;2023-02-28T11:39:07;37.40;;;26.65;;
19971;SDS011;10147;16.402;102.848;2023-02-28T11:47:48;38.20;;;25.27;;
19971;SDS011;10147;16.402;102.848;2023-02-28T11:51:04;37.88;;;25.40;;
19971;SDS011;10147;16.402;102.848;2023-02-28T11:53:49;45.78;;;25.20;;
19971;SDS011;10147;16.402;102.848;2023-02-28T11:56:33;42.40;;;25.55;;
19971;SDS011;10147;16.402;102.848;2023-02-28T12:02:24;42.60;;;24.25;;
19971;SDS011;10147;16.402;102.848;2023-02-28T12:08:12;46.50;;;26.80;;
19971;SDS011;10147;16.402;102.848;2023-02-28T12:17:29;50.10;;;28.50;;
19971;SDS011;10147;16.402;102.848;2023-02-28T12:29:26;53.90;;;27.02;;
19971;SDS011;10147;16.402;102.848;2023-02-28T12:34:57;50.30;;;31.90;;
19971;SDS011;10147;16.402;102.848;2023-02-28T12:37:45;66.75;;;30.35;;
19971;SDS011;10147;16.402;102.848;2023-02-28T12:40:42;59.97;;;34.20;;
19971;SDS011;10147;16.402;102.848;2023-02-28T12:43:18;65.13;;;35.70;;
19971;SDS011;10147;16.402;102.848;2023-02-28T12:45:58;68.93;;;39.15;;
19971;SDS011;10147;16.402;102.848;2023-02-28T12:48:42;61.88;;;38.05;;
19971;SDS011;10147;16.402;102.848;2023-02-28T12:51:24;63.58;;;34.33;;
19971;SDS011;10147;16.402;102.848;2023-02-28T13:00:17;69.80;;;38.70;;
19971;SDS011;10147;16.402;102.848;2023-02-28T13:02:59;68.30;;;37.90;;
19971;SDS011;10147;16.402;102.848;2023-02-28T13:09:16;65.18;;;37.55;;
19971;SDS011;10147;16.402;102.848;2023-02-28T13:11:48;75.97;;;38.55;;
19971;SDS011;10147;16.402;102.848;2023-02-28T13:14:38;53.67;;;34.00;;
19971;SDS011;10147;16.402;102.848;2023-02-28T13:17:12;60.35;;;35.00;;
19971;SDS011;10147;16.402;102.848;2023-02-28T13:19:57;52.25;;;33.55;;
19971;SDS011;10147;16.402;102.848;2023-02-28T13:22:44;52.80;;;35.28;;
19971;SDS011;10147;16.402;102.848;2023-02-28T13:31:33;136.70;;;105.90;;
19971;SDS011;10147;16.402;102.848;2023-02-28T13:37:47;54.35;;;39.72;;
19971;SDS011;10147;16.402;102.848;2023-02-28T13:40:32;64.53;;;35.90;;
19971;SDS011;10147;16.402;102.848;2023-02-28T13:43:07;54.03;;;36.88;;
19971;SDS011;10147;16.402;102.848;2023-02-28T13:45:39;50.53;;;35.20;;
19971;SDS011;10147;16.402;102.848;2023-02-28T13:48:49;49.38;;;35.15;;
19971;SDS011;10147;16.402;102.848;2023-02-28T14:06:59;56.85;;;34.33;;
19971;SDS011;10147;16.402;102.848;2023-02-28T14:09:35;50.55;;;35.58;;
19971;SDS011;10147;16.402;102.848;2023-02-28T14:15:34;52.47;;;35.13;;
19971;SDS011;10147;16.402;102.848;2023-02-28T14:21:14;59.42;;;36.63;;
19971;SDS011;10147;16.402;102.848;2023-02-28T14:24:10;51.20;;;36.72;;
19971;SDS011;10147;16.402;102.848;2023-02-28T14:30:11;278.17;;;204.27;;
19971;SDS011;10147;16.402;102.848;2023-02-28T14:36:22;78.38;;;52.95;;
19971;SDS011;10147;16.402;102.848;2023-02-28T14:39:16;58.63;;;37.65;;
19971;SDS011;10147;16.402;102.848;2023-02-28T14:41:50;52.60;;;37.28;;
19971;SDS011;10147;16.402;102.848;2023-02-28T14:44:22;53.28;;;38.15;;
19971;SDS011;10147;16.402;102.848;2023-02-28T14:47:14;56.55;;;35.03;;
19971;SDS011;10147;16.402;102.848;2023-02-28T14:49:45;54.20;;;34.50;;
19971;SDS011;10147;16.402;102.848;2023-02-28T14:52:19;63.58;;;35.65;;
19971;SDS011;10147;16.402;102.848;2023-02-28T14:54:55;54.92;;;35.53;;
19971;SDS011;10147;16.402;102.848;2023-02-28T14:57:32;85.75;;;76.80;;
19971;SDS011;10147;16.402;102.848;2023-02-28T15:03:17;62.25;;;36.20;;
19971;SDS011;10147;16.402;102.848;2023-02-28T15:08:43;61.45;;;35.38;;
19971;SDS011;10147;16.402;102.848;2023-02-28T15:11:14;53.75;;;34.40;;
19971;SDS011;10147;16.402;102.848;2023-02-28T15:13:48;47.65;;;32.53;;
19971;SDS011;10147;16.402;102.848;2023-02-28T15:19:22;46.20;;;32.47;;
19971;SDS011;10147;16.402;102.848;2023-02-28T15:22:20;47.63;;;33.65;;
19971;SDS011;10147;16.402;102.848;2023-02-28T15:24:57;51.30;;;32.83;;
19971;SDS011;10147;16.402;102.848;2023-02-28T15:27:29;52.53;;;34.20;;
19971;SDS011;10147;16.402;102.848;2023-02-28T15:30:06;68.32;;;46.28;;
19971;SDS011;10147;16.402;102.848;2023-02-28T15:32:44;71.13;;;48.42;;
19971;SDS011;10147;16.402;102.848;2023-02-28T15:38:12;50.60;;;33.78;;
19971;SDS011;10147;16.402;102.848;2023-02-28T15:40:55;53.53;;;35.22;;
19971;SDS011;10147;16.402;102.848;2023-02-28T15:43:27;51.75;;;35.60;;
19971;SDS011;10147;16.402;102.848;2023-02-28T15:46:09;56.17;;;33.47;;
19971;SDS011;10147;16.402;102.848;2023-02-28T15:48:52;51.67;;;35.03;;
19971;SDS011;10147;16.402;102.848;2023-02-28T15:51:30;51.47;;;34.53;;
19971;SDS011;10147;16.402;102.848;2023-02-28T15:54:14;50.33;;;34.78;;
19971;SDS011;10147;16.402;102.848;2023-02-28T15:56:54;65.57;;;39.83;;
19971;SDS011;10147;16.402;102.848;2023-02-28T15:59:27;56.92;;;38.30;;
19971;SDS011;10147;16.402;102.848;2023-02-28T16:05:00;59.90;;;39.88;;
19971;SDS011;10147;16.402;102.848;2023-02-28T16:07:57;56.25;;;36.17;;
19971;SDS011;10147;16.402;102.848;2023-02-28T16:10:29;51.38;;;36.00;;
19971;SDS011;10147;16.402;102.848;2023-02-28T16:13:01;58.40;;;34.83;;
19971;SDS011;10147;16.402;102.848;2023-02-28T16:15:35;52.13;;;37.97;;
19971;SDS011;10147;16.402;102.848;2023-02-28T16:18:11;57.97;;;38.88;;
19971;SDS011;10147;16.402;102.848;2023-02-28T16:20:42;63.92;;;38.92;;
19971;SDS011;10147;16.402;102.848;2023-02-28T16:23:13;54.97;;;37.10;;
19971;SDS011;10147;16.402;102.848;2023-02-28T16:25:43;54.25;;;37.42;;
19971;SDS011;10147;16.402;102.848;2023-02-28T16:28:24;217.90;;;155.05;;
19971;SDS011;10147;16.402;102.848;2023-02-28T16:31:02;102.28;;;67.07;;
19971;SDS011;10147;16.402;102.848;2023-02-28T16:33:34;77.00;;;54.20;;
19971;SDS011;10147;16.402;102.848;2023-02-28T16:36:05;63.85;;;40.25;;
19971;SDS011;10147;16.402;102.848;2023-02-28T16:38:39;63.28;;;42.03;;
19971;SDS011;10147;16.402;102.848;2023-02-28T16:41:14;59.03;;;39.88;;
19971;SDS011;10147;16.402;102.848;2023-02-28T16:43:49;53.15;;;36.70;;
19971;SDS011;10147;16.402;102.848;2023-02-28T16:46:21;61.63;;;37.17;;
19971;SDS011;10147;16.402;102.848;2023-02-28T16:48:52;58.25;;;38.97;;
19971;SDS011;10147;16.402;102.848;2023-02-28T16:51:23;56.65;;;38.47;;
19971;SDS011;10147;16.402;102.848;2023-02-28T16:53:53;60.97;;;39.10;;
19971;SDS011;10147;16.402;102.848;2023-02-28T16:56:24;54.80;;;39.38;;
19971;SDS011;10147;16.402;102.848;2023-02-28T16:58:55;61.08;;;38.70;;
19971;SDS011;10147;16.402;102.848;2023-02-28T17:01:29;59.65;;;38.85;;
19971;SDS011;10147;16.402;102.848;2023-02-28T17:04:01;55.92;;;39.08;;
19971;SDS011;10147;16.402;102.848;2023-02-28T17:06:31;58.28;;;39.20;;
19971;SDS011;10147;16.402;102.848;2023-02-28T17:09:02;54.72;;;37.47;;
19971;SDS011;10147;16.402;102.848;2023-02-28T17:11:33;59.78;;;38.58;;
19971;SDS011;10147;16.402;102.848;2023-02-28T17:14:03;58.75;;;38.97;;
19971;SDS011;10147;16.402;102.848;2023-02-28T17:16:33;60.03;;;41.85;;
19971;SDS011;10147;16.402;102.848;2023-02-28T17:19:11;63.30;;;41.28;;
19971;SDS011;10147;16.402;102.848;2023-02-28T17:21:46;62.28;;;41.17;;
19971;SDS011;10147;16.402;102.848;2023-02-28T17:24:16;59.80;;;43.75;;
19971;SDS011;10147;16.402;102.848;2023-02-28T17:26:57;62.08;;;40.65;;